createdAt,value
2023-05-21T00:00:35.027Z,5.17
2023-05-21T00:03:02.694Z,5.43
2023-05-21T00:05:29.542Z,5.57
2023-05-21T00:07:56.665Z,5.77
2023-05-21T00:10:23.558Z,5.50
2023-05-21T00:12:50.415Z,5.50
2023-05-21T00:15:17.498Z,6.07
2023-05-21T00:17:46.208Z,5.80
2023-05-21T00:20:13.395Z,6.00
2023-05-21T00:22:42.154Z,6.07
2023-05-21T00:25:10.108Z,6.67
2023-05-21T00:27:37.240Z,5.90
2023-05-21T00:30:04.907Z,6.13
2023-05-21T00:32:31.897Z,6.37
2023-05-21T00:34:58.951Z,6.60
2023-05-21T00:37:25.795Z,5.93
2023-05-21T00:39:52.600Z,6.63
2023-05-21T00:42:21.182Z,6.60
2023-05-21T00:44:48.290Z,6.33
2023-05-21T00:47:18.359Z,6.07
2023-05-21T00:49:45.489Z,6.87
2023-05-21T00:52:12.850Z,6.93
2023-05-21T00:54:40.581Z,6.60
2023-05-21T00:57:07.978Z,7.07
2023-05-21T00:59:35.380Z,6.70
2023-05-21T01:02:05.436Z,6.60
2023-05-21T01:04:32.949Z,6.90
2023-05-21T01:06:59.855Z,7.00
2023-05-21T01:09:27.243Z,6.07
2023-05-21T01:11:55.881Z,7.23
2023-05-21T01:14:24.272Z,6.73
2023-05-21T01:16:52.883Z,6.80
2023-05-21T01:19:22.298Z,6.83
2023-05-21T01:21:56.467Z,6.53
2023-05-21T01:24:23.465Z,6.83
2023-05-21T01:26:50.457Z,6.33
2023-05-21T01:29:17.246Z,7.20
2023-05-21T01:31:53.588Z,7.13
2023-05-21T01:34:23.914Z,6.83
2023-05-21T01:37:01.257Z,6.50
2023-05-21T01:39:37.966Z,6.53
2023-05-21T01:42:09.176Z,6.73
2023-05-21T01:44:37.127Z,6.90
2023-05-21T01:47:04.990Z,7.00
2023-05-21T01:49:32.292Z,7.20
2023-05-21T01:51:59.197Z,6.70
2023-05-21T01:54:26.040Z,6.67
2023-05-21T01:56:53.013Z,7.17
2023-05-21T01:59:20.301Z,6.73
2023-05-21T02:01:47.501Z,7.50
2023-05-21T02:04:14.380Z,7.20
2023-05-21T02:06:41.845Z,7.40
2023-05-21T02:09:09.378Z,7.37
2023-05-21T02:11:36.280Z,6.50
2023-05-21T02:14:03.945Z,6.87
2023-05-21T02:16:30.822Z,6.83
2023-05-21T02:18:57.986Z,7.20
2023-05-21T02:21:24.830Z,7.23
2023-05-21T02:23:51.870Z,6.53
2023-05-21T02:26:18.890Z,7.17
2023-05-21T02:28:45.718Z,7.40
2023-05-21T02:31:15.615Z,6.83
2023-05-21T02:33:42.556Z,6.80
2023-05-21T02:36:13.130Z,7.10
2023-05-21T02:38:43.924Z,7.10
2023-05-21T02:41:11.888Z,7.43
2023-05-21T02:43:38.963Z,7.07
2023-05-21T02:46:07.492Z,7.20
2023-05-21T02:48:34.444Z,6.67
2023-05-21T02:51:01.369Z,7.33
2023-05-21T02:53:28.407Z,7.30
2023-05-21T02:55:55.189Z,6.73
2023-05-21T02:58:23.456Z,7.37
2023-05-21T03:00:50.493Z,6.80
2023-05-21T03:03:17.331Z,7.57
2023-05-21T03:05:45.866Z,7.20
2023-05-21T03:08:12.799Z,8.30
2023-05-21T03:10:39.593Z,7.60
2023-05-21T03:13:09.529Z,7.30
2023-05-21T03:15:39.073Z,7.53
2023-05-21T03:18:06.471Z,7.33
2023-05-21T03:20:33.578Z,8.10
2023-05-21T03:23:04.341Z,7.57
2023-05-21T03:25:31.240Z,7.83
2023-05-21T03:27:58.035Z,7.80
2023-05-21T03:30:25.205Z,8.33
2023-05-21T03:32:52.139Z,7.37
2023-05-21T03:35:18.966Z,7.50
2023-05-21T03:37:46.590Z,7.63
2023-05-21T03:40:13.788Z,7.70
2023-05-21T03:42:40.955Z,7.83
2023-05-21T03:45:08.288Z,7.30
2023-05-21T03:47:36.206Z,7.53
2023-05-21T03:50:03.803Z,8.03
2023-05-21T03:52:30.970Z,7.80
2023-05-21T03:54:57.764Z,7.17
2023-05-21T03:57:24.738Z,7.43
2023-05-21T03:59:51.570Z,7.17
2023-05-21T04:02:18.464Z,7.77
2023-05-21T04:04:45.817Z,7.53
2023-05-21T04:07:15.403Z,7.63
2023-05-21T04:09:42.477Z,6.93
2023-05-21T04:12:09.538Z,6.90
2023-05-21T04:14:37.622Z,7.00
2023-05-21T04:17:05.395Z,6.87
2023-05-21T04:19:32.868Z,6.70
2023-05-21T04:22:00.015Z,7.27
2023-05-21T04:24:26.923Z,6.93
2023-05-21T04:26:53.901Z,7.10
2023-05-21T04:29:21.198Z,7.57
2023-05-21T04:31:49.663Z,6.90
2023-05-21T04:34:18.021Z,7.27
2023-05-21T04:36:48.304Z,7.23
2023-05-21T04:39:15.933Z,6.67
2023-05-21T04:41:42.848Z,7.07
2023-05-21T04:44:10.269Z,7.47
2023-05-21T04:46:39.645Z,7.17
2023-05-21T04:49:10.244Z,6.97
2023-05-21T04:51:40.304Z,7.30
2023-05-21T04:54:07.508Z,6.87
2023-05-21T04:56:34.641Z,7.00
2023-05-21T04:59:03.915Z,7.37
2023-05-21T05:01:33.052Z,8.00
2023-05-21T05:03:59.865Z,7.00
2023-05-21T05:06:26.958Z,7.90
2023-05-21T05:08:53.786Z,7.53
2023-05-21T05:11:21.249Z,6.97
2023-05-21T05:13:48.300Z,7.57
2023-05-21T05:16:17.987Z,7.50
2023-05-21T05:18:44.863Z,7.83
2023-05-21T05:21:11.851Z,7.40
2023-05-21T05:23:38.836Z,7.60
2023-05-21T05:26:05.654Z,7.40
2023-05-21T05:28:32.668Z,7.63
2023-05-21T05:30:59.618Z,6.90
2023-05-21T05:33:26.621Z,7.63
2023-05-21T05:35:53.647Z,7.13
2023-05-21T05:38:20.438Z,7.47
2023-05-21T05:40:47.267Z,7.40
2023-05-21T05:43:14.400Z,7.57
2023-05-21T05:45:41.194Z,6.80
2023-05-21T05:48:08.082Z,8.00
2023-05-21T05:50:35.123Z,7.90
2023-05-21T05:53:02.010Z,7.10
2023-05-21T05:55:28.818Z,7.07
2023-05-21T05:57:56.359Z,7.87
2023-05-21T06:00:23.176Z,7.83
2023-05-21T06:02:50.087Z,8.47
2023-05-21T06:05:17.333Z,7.37
2023-05-21T06:07:44.205Z,7.17
2023-05-21T06:10:11.303Z,7.37
2023-05-21T06:12:38.202Z,7.53
2023-05-21T06:15:06.172Z,7.63
2023-05-21T06:17:33.474Z,7.17
2023-05-21T06:20:00.513Z,7.00
2023-05-21T06:22:27.643Z,7.63
2023-05-21T06:24:54.648Z,7.87
2023-05-21T06:27:21.428Z,6.73
2023-05-21T06:29:48.606Z,6.77
2023-05-21T06:32:15.608Z,7.20
2023-05-21T06:34:42.589Z,6.83
2023-05-21T06:37:09.395Z,7.53
2023-05-21T06:39:36.408Z,7.33
2023-05-21T06:42:03.323Z,7.57
2023-05-21T06:44:31.129Z,7.20
2023-05-21T06:46:58.109Z,7.53
2023-05-21T06:49:25.012Z,7.30
2023-05-21T06:51:51.833Z,7.60
2023-05-21T06:54:18.961Z,7.77
2023-05-21T06:56:46.013Z,7.33
2023-05-21T06:59:12.850Z,7.80
2023-05-21T07:01:42.777Z,7.43
2023-05-21T07:04:10.450Z,8.17
2023-05-21T07:06:40.916Z,7.90
2023-05-21T07:09:07.968Z,7.77
2023-05-21T07:11:34.926Z,7.73
2023-05-21T07:14:02.203Z,7.70
2023-05-21T07:16:29.310Z,7.90
2023-05-21T07:18:56.215Z,7.47
2023-05-21T07:21:23.044Z,7.30
2023-05-21T07:23:50.420Z,7.50
2023-05-21T07:26:17.709Z,8.10
2023-05-21T07:28:45.367Z,7.43
2023-05-21T07:31:12.495Z,7.97
2023-05-21T07:33:39.473Z,7.70
2023-05-21T07:36:06.998Z,7.80
2023-05-21T07:38:34.622Z,8.00
2023-05-21T07:41:01.415Z,8.07
2023-05-21T07:43:28.440Z,7.73
2023-05-21T07:45:55.659Z,7.37
2023-05-21T07:48:22.635Z,8.13
2023-05-21T07:50:50.256Z,7.40
2023-05-21T07:53:17.122Z,8.10
2023-05-21T07:55:47.781Z,7.80
2023-05-21T07:58:16.634Z,8.23
2023-05-21T08:00:47.693Z,7.97
2023-05-21T08:03:17.514Z,8.47
2023-05-21T08:05:48.635Z,8.77
2023-05-21T08:08:16.755Z,8.97
2023-05-21T08:10:43.926Z,8.40
2023-05-21T08:13:12.430Z,8.93
2023-05-21T08:15:39.854Z,8.53
2023-05-21T08:18:07.035Z,8.90
2023-05-21T08:20:35.048Z,9.27
2023-05-21T08:23:02.303Z,8.33
2023-05-21T08:25:29.434Z,9.70
2023-05-21T08:27:56.554Z,7.70
2023-05-21T08:30:23.409Z,8.43
2023-05-21T08:32:50.551Z,8.70
2023-05-21T08:35:17.398Z,8.70
2023-05-21T08:37:44.485Z,8.67
2023-05-21T08:40:12.502Z,9.47
2023-05-21T08:42:42.268Z,8.27
2023-05-21T08:45:13.055Z,7.93
2023-05-21T08:47:45.293Z,8.55
2023-05-21T08:50:19.738Z,7.90
2023-05-21T08:52:46.904Z,8.73
2023-05-21T08:55:14.182Z,8.18
2023-05-21T08:57:45.423Z,8.10
2023-05-21T09:00:12.829Z,8.32
2023-05-21T09:02:44.004Z,9.55
2023-05-21T09:05:12.450Z,8.57
2023-05-21T09:08:03.547Z,8.80
2023-05-21T09:10:37.173Z,8.70
2023-05-21T09:13:04.914Z,8.25
2023-05-21T09:15:32.966Z,9.15
2023-05-21T09:18:00.450Z,9.18
2023-05-21T09:20:28.368Z,8.88
2023-05-21T09:22:55.750Z,8.68
2023-05-21T09:25:30.095Z,9.10
2023-05-21T09:27:57.510Z,8.98
2023-05-21T09:30:34.093Z,9.05
2023-05-21T09:33:03.689Z,9.77
2023-05-21T09:35:30.721Z,10.00
2023-05-21T09:37:57.757Z,9.98
2023-05-21T09:40:25.028Z,9.57
2023-05-21T09:42:55.919Z,9.60
2023-05-21T09:45:27.146Z,9.70
2023-05-21T09:47:56.613Z,9.43
2023-05-21T09:50:27.945Z,9.35
2023-05-21T09:52:56.112Z,9.40
2023-05-21T09:55:24.101Z,10.20
2023-05-21T09:57:51.646Z,9.80
2023-05-21T10:00:23.301Z,9.85
2023-05-21T10:02:58.159Z,9.63
2023-05-21T10:05:29.558Z,10.20
2023-05-21T10:08:02.391Z,10.27
2023-05-21T10:10:31.203Z,9.55
2023-05-21T10:13:04.792Z,9.75
2023-05-21T10:15:42.437Z,9.70
2023-05-21T10:18:11.211Z,9.60
2023-05-21T10:20:38.966Z,8.93
2023-05-21T10:23:06.566Z,9.48
2023-05-21T10:25:34.094Z,10.43
2023-05-21T10:28:01.325Z,10.85
2023-05-21T10:30:29.010Z,10.25
2023-05-21T10:32:57.024Z,9.90
2023-05-21T10:35:24.826Z,10.18
2023-05-21T10:37:53.272Z,10.77
2023-05-21T10:40:20.492Z,10.15
2023-05-21T10:43:12.067Z,10.43
2023-05-21T10:45:39.081Z,9.55
2023-05-21T10:48:30.778Z,9.88
2023-05-21T10:51:06.574Z,10.98
2023-05-21T10:54:01.738Z,10.32
2023-05-21T10:56:43.400Z,10.75
2023-05-21T10:59:41.268Z,10.23
2023-05-21T11:02:09.723Z,11.25
2023-05-21T11:04:40.319Z,10.95
2023-05-21T11:07:07.418Z,10.80
2023-05-21T11:09:34.626Z,10.18
2023-05-21T11:12:03.324Z,10.50
2023-05-21T11:14:35.900Z,11.40
2023-05-21T11:17:05.000Z,11.90
2023-05-21T11:19:42.042Z,11.77
2023-05-21T11:22:24.065Z,12.27
2023-05-21T11:24:52.283Z,11.48
2023-05-21T11:27:38.114Z,11.00
2023-05-21T11:30:25.781Z,11.55
2023-05-21T11:33:07.794Z,11.80
2023-05-21T11:35:50.568Z,12.50
2023-05-21T11:38:18.577Z,12.10
2023-05-21T11:40:55.377Z,12.63
2023-05-21T11:43:22.536Z,12.10
2023-05-21T11:45:52.674Z,12.95
2023-05-21T11:48:27.233Z,12.48
2023-05-21T11:50:55.125Z,12.70
2023-05-21T11:53:22.381Z,12.13
2023-05-21T11:55:50.881Z,12.38
2023-05-21T11:58:19.663Z,11.68
2023-05-21T12:00:50.836Z,13.02
2023-05-21T12:03:21.075Z,11.98
2023-05-21T12:05:49.749Z,13.27
2023-05-21T12:08:25.878Z,13.15
2023-05-21T12:11:00.295Z,13.60
2023-05-21T12:13:28.590Z,12.63
2023-05-21T12:15:55.591Z,12.93
2023-05-21T12:18:22.850Z,13.63
2023-05-21T12:20:52.260Z,13.25
2023-05-21T12:23:21.115Z,12.82
2023-05-21T12:25:48.289Z,15.02
2023-05-21T12:28:15.967Z,13.30
2023-05-21T12:30:42.790Z,13.05
2023-05-21T12:33:12.317Z,13.77
2023-05-21T12:35:39.688Z,12.68
2023-05-21T12:38:10.005Z,12.77
2023-05-21T12:40:41.118Z,13.15
2023-05-21T12:43:08.828Z,12.43
2023-05-21T12:45:37.209Z,13.35
2023-05-21T12:48:04.424Z,12.95
2023-05-21T12:50:33.988Z,14.10
2023-05-21T12:53:00.988Z,13.02
2023-05-21T12:55:28.196Z,12.45
2023-05-21T12:58:08.792Z,12.30
2023-05-21T13:00:36.743Z,12.75
2023-05-21T13:03:06.272Z,13.27
2023-05-21T13:05:34.151Z,12.55
2023-05-21T13:08:01.317Z,12.65
2023-05-21T13:10:29.220Z,13.35
2023-05-21T13:12:56.578Z,13.50
2023-05-21T13:15:23.624Z,13.48
2023-05-21T13:17:51.160Z,11.55
2023-05-21T13:20:22.059Z,13.23
2023-05-21T13:22:51.113Z,13.18
2023-05-21T13:25:25.043Z,11.60
2023-05-21T13:27:53.361Z,12.27
2023-05-21T13:30:22.256Z,11.30
2023-05-21T13:32:49.449Z,12.50
2023-05-21T13:35:17.520Z,11.90
2023-05-21T13:37:45.341Z,12.80
2023-05-21T13:40:17.940Z,13.20
2023-05-21T13:42:46.901Z,12.88
2023-05-21T13:45:16.882Z,11.98
2023-05-21T13:47:44.828Z,13.30
2023-05-21T13:50:12.986Z,13.32
2023-05-21T13:52:40.691Z,13.07
2023-05-21T13:55:07.970Z,13.07
2023-05-21T13:57:34.805Z,12.07
2023-05-21T14:00:01.962Z,12.82
2023-05-21T14:02:29.118Z,12.65
2023-05-21T14:04:56.018Z,13.27
2023-05-21T14:07:23.276Z,13.27
2023-05-21T14:09:50.122Z,13.07
2023-05-21T14:12:17.249Z,13.57
2023-05-21T14:14:44.414Z,14.15
2023-05-21T14:17:11.391Z,13.93
2023-05-21T14:19:38.180Z,13.50
2023-05-21T14:22:05.453Z,14.30
2023-05-21T14:24:32.732Z,14.52
2023-05-21T14:26:59.531Z,14.70
2023-05-21T14:29:26.867Z,14.80
2023-05-21T14:31:54.055Z,14.40
2023-05-21T14:34:21.260Z,14.65
2023-05-21T14:36:48.374Z,13.82
2023-05-21T14:39:15.569Z,14.15
2023-05-21T14:41:42.711Z,13.75
2023-05-21T14:44:09.723Z,13.95
2023-05-21T14:46:36.906Z,14.48
2023-05-21T14:49:04.075Z,14.48
2023-05-21T14:51:31.846Z,14.13
2023-05-21T14:53:59.279Z,15.20
2023-05-21T14:56:27.971Z,15.15
2023-05-21T14:58:55.737Z,14.13
2023-05-21T15:01:22.717Z,15.93
2023-05-21T15:03:49.747Z,14.35
2023-05-21T15:06:17.130Z,14.40
2023-05-21T15:08:44.018Z,13.95
2023-05-21T15:11:11.496Z,14.57
2023-05-21T15:13:39.612Z,14.77
2023-05-21T15:16:07.178Z,14.52
2023-05-21T15:18:34.214Z,14.23
2023-05-21T15:21:01.469Z,14.15
2023-05-21T15:23:28.409Z,14.57
2023-05-21T15:25:55.802Z,13.57
2023-05-21T15:28:23.328Z,14.05
2023-05-21T15:30:50.360Z,13.57
2023-05-21T15:33:17.680Z,13.75
2023-05-21T15:35:44.947Z,14.27
2023-05-21T15:38:12.188Z,13.65
2023-05-21T15:40:42.942Z,13.27
2023-05-21T15:43:09.761Z,13.77
2023-05-21T15:45:36.994Z,12.90
2023-05-21T15:48:04.755Z,13.82
2023-05-21T15:50:31.593Z,13.30
2023-05-21T15:52:58.787Z,13.45
2023-05-21T15:55:25.924Z,13.50
2023-05-21T15:57:52.795Z,12.75
2023-05-21T16:00:20.107Z,12.75
2023-05-21T16:02:47.333Z,12.80
2023-05-21T16:05:14.204Z,13.02
2023-05-21T16:07:41.084Z,12.90
2023-05-21T16:10:10.385Z,13.43
2023-05-21T16:12:37.376Z,13.30
2023-05-21T16:15:05.119Z,12.38
2023-05-21T16:17:32.171Z,12.68
2023-05-21T16:19:59.104Z,12.23
2023-05-21T16:22:26.142Z,12.65
2023-05-21T16:24:54.650Z,12.57
2023-05-21T16:27:21.882Z,12.25
2023-05-21T16:29:48.745Z,12.77
2023-05-21T16:32:16.342Z,12.85
2023-05-21T16:34:43.258Z,13.18
2023-05-21T16:37:10.225Z,13.10
2023-05-21T16:39:37.977Z,13.55
2023-05-21T16:42:05.060Z,12.20
2023-05-21T16:44:32.349Z,12.85
2023-05-21T16:46:59.978Z,12.50
2023-05-21T16:49:28.299Z,12.00
2023-05-21T16:51:55.135Z,12.15
2023-05-21T16:54:22.610Z,12.60
2023-05-21T16:56:49.569Z,11.85
2023-05-21T16:59:16.479Z,12.25
2023-05-21T17:01:45.428Z,12.15
2023-05-21T17:04:12.415Z,12.20
2023-05-21T17:06:39.263Z,12.00
2023-05-21T17:09:06.991Z,12.63
2023-05-21T17:11:35.062Z,11.45
2023-05-21T17:14:01.988Z,11.73
2023-05-21T17:16:29.511Z,11.90
2023-05-21T17:18:56.516Z,12.15
2023-05-21T17:21:23.751Z,11.55
2023-05-21T17:23:50.794Z,11.93
2023-05-21T17:26:18.135Z,11.77
2023-05-21T17:28:45.291Z,11.45
2023-05-21T17:31:12.661Z,11.55
2023-05-21T17:33:39.782Z,12.00
2023-05-21T17:36:06.952Z,11.73
2023-05-21T17:38:34.139Z,12.20
2023-05-21T17:41:01.044Z,12.98
2023-05-21T17:43:27.959Z,12.63
2023-05-21T17:45:55.099Z,12.32
2023-05-21T17:48:22.076Z,12.27
2023-05-21T17:50:49.747Z,12.13
2023-05-21T17:53:16.731Z,11.00
2023-05-21T17:55:43.710Z,11.88
2023-05-21T17:58:10.860Z,11.27
2023-05-21T18:00:37.745Z,11.80
2023-05-21T18:03:04.793Z,11.05
2023-05-21T18:05:31.873Z,11.68
2023-05-21T18:08:01.142Z,11.00
2023-05-21T18:10:28.436Z,10.70
2023-05-21T18:12:55.597Z,10.50
2023-05-21T18:15:25.856Z,11.18
2023-05-21T18:17:53.058Z,10.95
2023-05-21T18:20:20.350Z,10.38
2023-05-21T18:22:47.475Z,10.52
2023-05-21T18:25:14.472Z,10.88
2023-05-21T18:27:41.321Z,10.73
2023-05-21T18:30:08.800Z,10.85
2023-05-21T18:32:39.080Z,11.13
2023-05-21T18:35:13.775Z,10.55
2023-05-21T18:37:44.753Z,10.55
2023-05-21T18:40:12.828Z,10.48
2023-05-21T18:42:39.728Z,10.93
2023-05-21T18:45:08.712Z,11.00
2023-05-21T18:47:35.941Z,11.27
2023-05-21T18:50:02.783Z,11.43
2023-05-21T18:52:29.826Z,11.57
2023-05-21T18:54:56.784Z,11.55
2023-05-21T18:57:23.957Z,11.23
2023-05-21T18:59:51.063Z,11.65
2023-05-21T19:02:17.993Z,11.55
2023-05-21T19:04:45.596Z,11.98
2023-05-21T19:07:12.703Z,11.88
2023-05-21T19:09:39.533Z,11.45
2023-05-21T19:12:07.182Z,11.45
2023-05-21T19:14:34.461Z,12.13
2023-05-21T19:17:01.393Z,11.75
2023-05-21T19:19:28.393Z,11.73
2023-05-21T19:21:55.909Z,12.07
2023-05-21T19:24:22.928Z,11.40
2023-05-21T19:26:49.802Z,11.60
2023-05-21T19:29:17.151Z,11.90
2023-05-21T19:31:44.779Z,11.90
2023-05-21T19:34:11.726Z,12.13
2023-05-21T19:36:52.302Z,12.13
2023-05-21T19:39:20.363Z,11.60
2023-05-21T19:41:47.593Z,12.15
2023-05-21T19:44:14.972Z,12.63
2023-05-21T19:46:41.984Z,11.63
2023-05-21T19:49:11.218Z,12.27
2023-05-21T19:51:38.098Z,12.68
2023-05-21T19:54:05.419Z,12.05
2023-05-21T19:56:32.661Z,11.65
2023-05-21T19:58:59.521Z,11.90
2023-05-21T20:01:28.789Z,13.63
2023-05-21T20:03:56.484Z,12.80
2023-05-21T20:06:23.579Z,12.10
2023-05-21T20:08:51.836Z,14.10
2023-05-21T20:11:21.175Z,12.90
2023-05-21T20:13:50.293Z,12.65
2023-05-21T20:16:20.697Z,13.30
2023-05-21T20:18:48.424Z,13.02
2023-05-21T20:21:21.212Z,12.30
2023-05-21T20:23:50.542Z,12.75
2023-05-21T20:26:19.269Z,13.02
2023-05-21T20:28:46.478Z,13.48
2023-05-21T20:31:14.040Z,13.25
2023-05-21T20:33:42.747Z,13.70
2023-05-21T20:36:09.823Z,13.13
2023-05-21T20:38:38.871Z,13.52
2023-05-21T20:41:06.288Z,15.73
2023-05-21T20:43:37.618Z,14.00
2023-05-21T20:46:06.540Z,13.07
2023-05-21T20:48:34.113Z,12.98
2023-05-21T20:51:03.306Z,12.48
2023-05-21T20:53:30.256Z,12.05
2023-05-21T20:55:57.411Z,12.68
2023-05-21T20:58:25.529Z,11.95
2023-05-21T21:00:54.286Z,11.95
2023-05-21T21:03:22.108Z,12.60
2023-05-21T21:05:49.190Z,12.68
2023-05-21T21:08:16.201Z,11.90
2023-05-21T21:10:47.233Z,12.63
2023-05-21T21:13:14.847Z,12.38
2023-05-21T21:15:43.777Z,12.05
2023-05-21T21:18:12.673Z,12.10
2023-05-21T21:20:41.501Z,12.10
2023-05-21T21:23:09.165Z,11.15
2023-05-21T21:25:36.442Z,11.63
2023-05-21T21:28:03.372Z,11.05
2023-05-21T21:30:30.885Z,11.95
2023-05-21T21:32:58.024Z,11.45
2023-05-21T21:35:26.434Z,11.15
2023-05-21T21:37:53.555Z,12.10
2023-05-21T21:40:24.555Z,11.40
2023-05-21T21:42:51.772Z,11.98
2023-05-21T21:45:19.239Z,12.20
2023-05-21T21:47:46.832Z,11.75
2023-05-21T21:50:14.088Z,11.95
2023-05-21T21:52:42.186Z,11.68
2023-05-21T21:55:10.893Z,12.45
2023-05-21T21:57:39.602Z,12.68
2023-05-21T22:00:11.897Z,13.13
2023-05-21T22:02:40.297Z,12.45
2023-05-21T22:05:08.991Z,13.02
2023-05-21T22:07:38.883Z,12.05
2023-05-21T22:10:07.088Z,12.05
2023-05-21T22:12:34.394Z,12.68
2023-05-21T22:15:06.688Z,13.38
2023-05-21T22:17:34.211Z,13.43
2023-05-21T22:20:01.474Z,13.13
2023-05-21T22:22:28.534Z,13.82
2023-05-21T22:24:55.436Z,13.75
2023-05-21T22:27:22.560Z,13.68
2023-05-21T22:29:49.465Z,13.48
2023-05-21T22:32:16.461Z,13.32
2023-05-21T22:34:43.537Z,13.43
2023-05-21T22:37:11.058Z,15.33
2023-05-21T22:39:38.712Z,19.48
2023-05-21T22:42:05.921Z,14.95
2023-05-21T22:44:33.645Z,13.50
2023-05-21T22:47:01.135Z,12.88
2023-05-21T22:49:28.169Z,13.30
2023-05-21T22:51:56.811Z,12.88
2023-05-21T22:54:23.908Z,11.60
2023-05-21T22:56:50.949Z,12.55
2023-05-21T22:59:18.129Z,12.85
2023-05-21T23:01:45.219Z,12.77
2023-05-21T23:04:12.204Z,12.88
2023-05-21T23:06:39.049Z,12.73
2023-05-21T23:09:06.483Z,12.75
2023-05-21T23:11:33.381Z,12.30
2023-05-21T23:14:00.574Z,12.50
2023-05-21T23:16:27.631Z,12.75
2023-05-21T23:18:54.523Z,12.05
2023-05-21T23:21:22.054Z,11.65
2023-05-21T23:23:49.057Z,12.55
2023-05-21T23:26:16.243Z,12.35
2023-05-21T23:28:43.368Z,12.63
2023-05-21T23:31:10.629Z,12.85
2023-05-21T23:33:37.484Z,11.68
2023-05-21T23:36:04.572Z,12.18
2023-05-21T23:38:31.575Z,13.02
2023-05-21T23:40:58.372Z,12.13
2023-05-21T23:43:25.354Z,12.20
2023-05-21T23:45:52.183Z,13.15
2023-05-21T23:48:19.412Z,13.23
2023-05-21T23:50:46.620Z,13.80
2023-05-21T23:53:13.469Z,13.82
2023-05-21T23:55:40.908Z,14.02
2023-05-21T23:58:07.973Z,15.05
